KBCE/BCE METAR and TAF weather

Enter ICAO airport designator
Station Type Date Time Source
KBCE METAR 2019/06/16 06:53 UTC NOAA

KBCE 160653Z AUTO 27007KT 10SM CLR 09/03 A3020 RMK AO2 SLP117 T00890028 402390044


Station Type Date Time Source
KBCE Decoded METAR 2019/06/16 06:53 UTC NOAA

BRYCE CANYON AIRPORT, UT, United States (KBCE) 37-42N 112-09W 2312M
Jun 16, 2019 - 02:53 AM EDT / 2019.06.16 0653 UTC
Wind: from the W (270 degrees) at 8 MPH (7 KT):0
Visibility: 10 mile(s):0
Sky conditions: clear
Temperature: 48.0 F (8.9 C)
Dew Point: 37.0 F (2.8 C)
Relative Humidity: 65%
Pressure (altimeter): 30.2 in. Hg (1022 hPa)
ob: KBCE 160653Z AUTO 27007KT 10SM CLR 09/03 A3020 RMK AO2 SLP117 T00890028 402390044
cycle: 7

Station Type Date Time Source
KBCE TAF 2019/06/16 06:36 UTC NOAA

TAF KBCE 160534Z 1606/1706 27007KT P6SM SKC
FM161600 16007KT P6SM SCT080 BKN130
FM161900 29010KT P6SM VCSH BKN070 OVC100
FM170300 27007KT P6SM VCSH BKN060 BKN080

Example: see airport list